createdAt,value
2022-10-28T00:01:24.226Z,2.03
2022-10-28T00:03:58.834Z,2.35
2022-10-28T00:06:33.265Z,2.58
2022-10-28T00:09:00.854Z,2.15
2022-10-28T00:11:32.089Z,1.80
2022-10-28T00:14:03.819Z,1.75
2022-10-28T00:16:34.425Z,2.42
2022-10-28T00:19:03.699Z,2.50
2022-10-28T00:21:35.878Z,2.00
2022-10-28T00:24:04.082Z,2.53
2022-10-28T00:26:36.597Z,1.95
2022-10-28T00:29:08.543Z,2.13
2022-10-28T00:31:37.908Z,2.50
2022-10-28T00:34:10.681Z,2.45
2022-10-28T00:36:41.360Z,1.92
2022-10-28T00:39:29.097Z,1.67
2022-10-28T00:42:03.840Z,1.85
2022-10-28T00:44:43.710Z,1.95
2022-10-28T00:47:38.268Z,2.20
2022-10-28T00:50:34.963Z,1.88
2022-10-28T00:53:20.780Z,1.80
2022-10-28T00:55:49.470Z,2.10
2022-10-28T00:58:18.290Z,1.65
2022-10-28T01:00:45.999Z,2.08
2022-10-28T01:03:13.973Z,1.77
2022-10-28T01:05:44.763Z,1.70
2022-10-28T01:08:12.629Z,2.03
2022-10-28T01:11:23.187Z,1.90
2022-10-28T01:14:13.883Z,1.70
2022-10-28T01:16:49.320Z,1.80
2022-10-28T01:20:00.045Z,1.65
2022-10-28T01:22:48.192Z,1.80
2022-10-28T01:26:12.359Z,1.45
2022-10-28T01:29:16.298Z,1.88
2022-10-28T01:32:12.953Z,1.70
2022-10-28T01:35:09.549Z,1.88
2022-10-28T01:37:57.900Z,1.30
2022-10-28T01:40:35.212Z,1.90
2022-10-28T01:43:37.114Z,2.33
2022-10-28T01:46:36.368Z,1.77
2022-10-28T01:49:21.416Z,1.45
2022-10-28T01:51:56.245Z,1.70
2022-10-28T01:56:55.689Z,1.70
2022-10-28T01:59:27.405Z,1.70
2022-10-28T02:01:55.935Z,1.70
2022-10-28T02:04:23.791Z,1.45
2022-10-28T02:06:57.416Z,1.92
2022-10-28T02:10:04.346Z,1.70
2022-10-28T02:12:34.482Z,1.90
2022-10-28T02:15:26.560Z,1.50
2022-10-28T02:18:15.096Z,1.45
2022-10-28T02:21:04.390Z,1.67
2022-10-28T02:24:20.277Z,1.60
2022-10-28T02:27:07.935Z,2.22
2022-10-28T02:29:54.697Z,1.60
2022-10-28T02:32:28.731Z,1.40
2022-10-28T02:34:59.676Z,1.50
2022-10-28T02:37:33.555Z,1.70
2022-10-28T02:40:07.397Z,1.42
2022-10-28T02:42:41.631Z,1.50
2022-10-28T02:45:15.038Z,1.80
2022-10-28T02:47:52.157Z,1.95
2022-10-28T02:50:26.114Z,1.75
2022-10-28T02:52:59.143Z,1.63
2022-10-28T02:55:36.425Z,1.75
2022-10-28T02:58:05.620Z,1.90
2022-10-28T03:00:33.157Z,1.33
2022-10-28T03:03:00.717Z,1.50
2022-10-28T03:05:28.408Z,1.60
2022-10-28T03:07:56.083Z,1.38
2022-10-28T03:10:23.610Z,1.80
2022-10-28T03:12:51.187Z,1.50
2022-10-28T03:15:18.881Z,1.50
2022-10-28T03:17:46.736Z,1.40
2022-10-28T03:20:14.350Z,1.23
2022-10-28T03:22:44.632Z,1.35
2022-10-28T03:25:12.408Z,1.65
2022-10-28T03:27:41.695Z,1.52
2022-10-28T03:30:10.092Z,1.50
2022-10-28T03:32:37.712Z,1.80
2022-10-28T03:35:07.337Z,1.73
2022-10-28T03:37:35.114Z,1.67
2022-10-28T03:40:07.924Z,1.60
2022-10-28T03:42:38.842Z,1.80
2022-10-28T03:45:12.392Z,1.73
2022-10-28T03:47:41.276Z,1.60
2022-10-28T03:50:09.486Z,1.60
2022-10-28T03:52:37.656Z,1.83
2022-10-28T03:55:06.063Z,1.40
2022-10-28T03:57:34.029Z,1.50
2022-10-28T04:00:01.511Z,2.20
2022-10-28T04:02:39.213Z,1.80
2022-10-28T04:05:07.326Z,2.00
2022-10-28T04:07:38.895Z,1.50
2022-10-28T04:10:06.989Z,1.58
2022-10-28T04:12:34.527Z,1.90
2022-10-28T04:15:02.208Z,1.90
2022-10-28T04:17:34.635Z,2.15
2022-10-28T04:20:02.350Z,1.77
2022-10-28T04:22:30.197Z,2.00
2022-10-28T04:24:57.739Z,2.33
2022-10-28T04:27:25.170Z,1.85
2022-10-28T04:29:52.801Z,2.20
2022-10-28T04:32:20.680Z,1.88
2022-10-28T04:34:48.200Z,2.50
2022-10-28T04:37:19.682Z,1.92
2022-10-28T04:39:48.575Z,2.28
2022-10-28T04:42:16.166Z,2.20
2022-10-28T04:44:43.530Z,3.78
2022-10-28T04:47:11.102Z,3.65
2022-10-28T04:49:39.026Z,3.08
2022-10-28T04:52:08.768Z,3.45
2022-10-28T04:54:38.523Z,3.03
2022-10-28T04:57:08.768Z,3.00
2022-10-28T04:59:36.450Z,3.10
2022-10-28T05:02:04.134Z,2.67
2022-10-28T05:04:31.727Z,2.53
2022-10-28T05:06:59.380Z,2.88
2022-10-28T05:09:27.076Z,2.80
2022-10-28T05:11:54.727Z,3.17
2022-10-28T05:14:22.262Z,3.13
2022-10-28T05:16:49.782Z,2.50
2022-10-28T05:19:19.630Z,2.45
2022-10-28T05:21:47.259Z,3.05
2022-10-28T05:24:14.672Z,2.60
2022-10-28T05:26:42.316Z,2.38
2022-10-28T05:29:09.947Z,2.97
2022-10-28T05:31:37.487Z,3.00
2022-10-28T05:34:05.205Z,2.70
2022-10-28T05:36:32.774Z,3.17
2022-10-28T05:39:00.217Z,3.10
2022-10-28T05:41:27.869Z,2.63
2022-10-28T05:43:55.562Z,2.63
2022-10-28T05:46:23.210Z,2.78
2022-10-28T05:48:50.909Z,3.83
2022-10-28T05:51:18.666Z,5.50
2022-10-28T05:53:46.479Z,4.25
2022-10-28T05:56:14.112Z,5.35
2022-10-28T05:58:41.819Z,6.43
2022-10-28T06:01:09.665Z,5.57
2022-10-28T06:03:37.557Z,5.90
2022-10-28T06:06:05.396Z,6.63
2022-10-28T06:08:33.056Z,7.03
2022-10-28T06:11:00.508Z,7.97
2022-10-28T06:13:30.740Z,6.30
2022-10-28T06:15:58.294Z,6.72
2022-10-28T06:18:26.226Z,6.65
2022-10-28T06:20:58.242Z,7.63
2022-10-28T06:23:27.385Z,6.90
2022-10-28T06:26:02.194Z,6.85
2022-10-28T06:28:32.378Z,7.20
2022-10-28T06:31:07.192Z,6.55
2022-10-28T06:33:35.420Z,6.35
2022-10-28T06:36:03.666Z,6.10
2022-10-28T06:38:33.783Z,6.57
2022-10-28T06:41:01.608Z,6.43
2022-10-28T06:43:29.609Z,6.38
2022-10-28T06:46:02.574Z,6.05
2022-10-28T06:48:32.699Z,5.95
2022-10-28T06:51:00.776Z,6.18
2022-10-28T06:53:28.530Z,6.07
2022-10-28T06:55:57.847Z,5.85
2022-10-28T06:58:26.829Z,5.88
2022-10-28T07:00:55.757Z,5.95
2022-10-28T07:03:23.524Z,5.43
2022-10-28T07:05:51.732Z,5.57
2022-10-28T07:08:19.448Z,5.20
2022-10-28T07:11:03.236Z,4.75
2022-10-28T07:13:30.959Z,4.50
2022-10-28T07:16:01.902Z,5.55
2022-10-28T07:18:31.021Z,4.80
2022-10-28T07:21:02.671Z,4.82
2022-10-28T07:23:33.251Z,6.13
2022-10-28T07:26:02.112Z,4.43
2022-10-28T07:28:29.729Z,4.68
2022-10-28T07:31:04.810Z,4.40
2022-10-28T07:33:32.797Z,4.63
2022-10-28T07:36:03.812Z,4.38
2022-10-28T07:38:31.240Z,3.90
2022-10-28T07:40:59.038Z,4.95
2022-10-28T07:43:26.742Z,4.82
2022-10-28T07:46:01.565Z,4.10
2022-10-28T07:48:29.486Z,4.38
2022-10-28T07:51:01.184Z,4.80
2022-10-28T07:53:32.404Z,4.45
2022-10-28T07:56:04.418Z,5.05
2022-10-28T07:58:32.435Z,4.45
2022-10-28T08:01:07.868Z,4.20
2022-10-28T08:03:42.895Z,4.25
2022-10-28T08:06:17.638Z,4.15
2022-10-28T08:08:48.013Z,4.25
2022-10-28T08:11:25.562Z,4.13
2022-10-28T08:13:55.594Z,4.80
2022-10-28T08:16:23.164Z,4.47
2022-10-28T08:18:51.349Z,4.40
2022-10-28T08:21:19.000Z,4.80
2022-10-28T08:23:47.150Z,4.60
2022-10-28T08:26:18.317Z,4.00
2022-10-28T08:28:49.452Z,4.35
2022-10-28T08:31:17.173Z,4.10
2022-10-28T08:33:49.526Z,4.05
2022-10-28T08:36:17.628Z,4.15
2022-10-28T08:38:48.783Z,3.67
2022-10-28T08:41:40.599Z,3.97
2022-10-28T08:44:32.237Z,4.00
2022-10-28T08:47:38.543Z,3.28
2022-10-28T08:50:33.198Z,4.18
2022-10-28T08:53:20.323Z,3.22
2022-10-28T08:55:50.652Z,3.58
2022-10-28T08:58:27.313Z,3.55
2022-10-28T09:01:00.240Z,3.53
2022-10-28T09:03:34.426Z,3.53
2022-10-28T09:06:09.724Z,4.05
2022-10-28T09:08:44.219Z,3.38
2022-10-28T09:11:40.152Z,3.22
2022-10-28T09:14:47.601Z,4.28
2022-10-28T09:20:25.754Z,3.50
2022-10-28T09:22:59.063Z,3.55
2022-10-28T09:35:22.347Z,3.45
2022-10-28T09:38:08.189Z,3.65
2022-10-28T09:40:41.224Z,2.88
2022-10-28T09:43:39.210Z,3.22
2022-10-28T09:46:18.550Z,3.50
2022-10-28T09:51:52.640Z,3.53
2022-10-28T09:54:33.840Z,2.60
2022-10-28T09:57:03.715Z,3.30
2022-10-28T10:05:19.461Z,3.17
2022-10-28T10:07:54.124Z,3.53
2022-10-28T10:10:31.940Z,3.20
2022-10-28T10:13:04.644Z,3.00
2022-10-28T10:15:51.835Z,2.90
2022-10-28T10:21:20.394Z,3.17
2022-10-28T10:26:34.131Z,2.83
2022-10-28T10:29:01.760Z,2.92
2022-10-28T10:31:32.902Z,3.13
2022-10-28T10:36:55.436Z,3.22
2022-10-28T10:39:40.220Z,2.80
2022-10-28T10:42:20.612Z,2.60
2022-10-28T10:45:20.865Z,2.72
2022-10-28T10:47:50.368Z,3.55
2022-10-28T10:50:47.134Z,2.47
2022-10-28T10:53:35.484Z,2.72
2022-10-28T10:56:08.603Z,2.92
2022-10-28T10:58:53.451Z,2.65
2022-10-28T11:04:27.336Z,4.03
2022-10-28T11:12:35.518Z,3.25
2022-10-28T11:18:04.604Z,2.28
2022-10-28T11:21:07.320Z,2.58
2022-10-28T11:27:37.059Z,2.90
2022-10-28T11:37:44.463Z,2.83
2022-10-28T11:40:39.551Z,2.45
2022-10-28T11:43:54.390Z,3.25
2022-10-28T11:46:44.973Z,3.10
2022-10-28T11:49:30.311Z,2.75
2022-10-28T11:53:11.062Z,2.90
2022-10-28T11:59:23.752Z,3.22
2022-10-28T12:02:30.844Z,3.53
2022-10-28T12:05:30.901Z,2.97
2022-10-28T12:08:13.201Z,3.03
2022-10-28T12:15:02.866Z,3.17
2022-10-28T12:17:35.812Z,2.45
2022-10-28T12:20:39.726Z,3.15
2022-10-28T12:23:21.253Z,2.97
2022-10-28T12:25:57.556Z,2.22
2022-10-28T12:28:50.438Z,2.28
2022-10-28T12:31:34.759Z,2.58
2022-10-28T12:34:07.395Z,2.28
2022-10-28T12:36:43.648Z,3.08
2022-10-28T12:39:42.105Z,2.70
2022-10-28T12:42:31.278Z,3.05
2022-10-28T12:48:37.835Z,3.20
2022-10-28T12:51:08.659Z,2.50
2022-10-28T12:54:07.894Z,2.75
2022-10-28T12:56:38.332Z,3.45
2022-10-28T13:02:45.556Z,2.65
2022-10-28T13:05:28.279Z,3.45
2022-10-28T13:08:26.928Z,3.50
2022-10-28T13:11:39.284Z,2.72
2022-10-28T13:14:19.952Z,4.32
2022-10-28T13:17:11.931Z,2.55
2022-10-28T13:20:01.745Z,2.20
2022-10-28T13:22:49.927Z,2.40
2022-10-28T13:28:41.720Z,2.95
2022-10-28T13:34:00.503Z,3.17
2022-10-28T13:36:38.960Z,2.35
2022-10-28T13:39:33.807Z,2.90
2022-10-28T13:42:13.433Z,2.60
2022-10-28T13:45:02.593Z,2.90
2022-10-28T13:47:39.091Z,3.13
2022-10-28T13:50:06.809Z,2.88
2022-10-28T13:52:36.820Z,3.08
2022-10-28T13:58:28.470Z,2.90
2022-10-28T14:00:56.350Z,3.55
2022-10-28T14:03:26.986Z,3.25
2022-10-28T14:11:35.098Z,3.33
2022-10-28T14:14:05.839Z,2.42
2022-10-28T14:16:40.158Z,3.15
2022-10-28T14:24:58.599Z,3.00
2022-10-28T14:27:39.594Z,3.22
2022-10-28T14:30:19.096Z,2.97
2022-10-28T14:32:50.076Z,2.92
2022-10-28T14:38:39.762Z,2.83
2022-10-28T14:44:43.304Z,2.92
2022-10-28T14:47:57.666Z,2.88
2022-10-28T14:50:39.179Z,3.13
2022-10-28T14:53:14.863Z,3.00
2022-10-28T14:55:51.187Z,3.60
2022-10-28T14:58:22.381Z,2.95
2022-10-28T15:04:13.454Z,3.25
2022-10-28T15:06:48.333Z,2.55
2022-10-28T15:12:13.769Z,2.92
2022-10-28T15:17:39.653Z,3.78
2022-10-28T15:20:35.926Z,3.13
2022-10-28T15:23:23.936Z,3.15
2022-10-28T15:29:06.794Z,3.60
2022-10-28T15:31:34.363Z,3.58
2022-10-28T15:39:39.445Z,2.83
2022-10-28T15:48:32.109Z,3.58
2022-10-28T15:51:17.538Z,4.03
2022-10-28T15:53:54.182Z,3.25
2022-10-28T15:56:28.033Z,3.17
2022-10-28T15:59:24.122Z,2.58
2022-10-28T16:01:52.695Z,3.45
2022-10-28T16:04:23.110Z,3.17
2022-10-28T16:07:05.497Z,3.88
2022-10-28T16:09:46.564Z,3.35
2022-10-28T16:12:23.920Z,3.28
2022-10-28T16:15:02.031Z,4.00
2022-10-28T16:17:35.087Z,3.88
2022-10-28T16:28:46.597Z,4.35
2022-10-28T16:31:20.370Z,3.80
2022-10-28T16:33:48.428Z,3.75
2022-10-28T16:39:01.146Z,3.15
2022-10-28T16:41:28.852Z,3.47
2022-10-28T16:43:56.324Z,3.05
2022-10-28T16:46:23.740Z,4.20
2022-10-28T16:51:37.106Z,3.88
2022-10-28T16:54:04.774Z,3.30
2022-10-28T16:56:32.477Z,4.32
2022-10-28T16:59:00.023Z,4.07
2022-10-28T17:01:27.725Z,3.65
2022-10-28T17:03:55.287Z,2.35
2022-10-28T17:06:22.935Z,3.38
2022-10-28T17:09:02.985Z,2.83
2022-10-28T17:14:04.066Z,2.97
2022-10-28T17:16:35.970Z,2.95
2022-10-28T17:19:05.769Z,3.15
2022-10-28T17:24:18.353Z,3.17
2022-10-28T17:26:47.501Z,3.55
2022-10-28T17:29:15.435Z,3.53
2022-10-28T17:31:43.123Z,2.85
2022-10-28T17:34:12.076Z,2.85
2022-10-28T17:36:39.980Z,3.13
2022-10-28T17:39:11.143Z,2.65
2022-10-28T17:44:25.927Z,3.03
2022-10-28T17:49:38.423Z,3.10
2022-10-28T17:54:51.009Z,2.83
2022-10-28T17:57:18.737Z,3.05
2022-10-28T17:59:47.068Z,2.95
2022-10-28T18:05:00.246Z,2.88
2022-10-28T18:07:27.954Z,2.90
2022-10-28T18:09:55.286Z,3.65
2022-10-28T18:15:09.886Z,2.80
2022-10-28T18:20:22.662Z,2.88
2022-10-28T18:25:37.619Z,2.58
2022-10-28T18:28:05.813Z,2.78
2022-10-28T18:30:33.481Z,3.28
2022-10-28T18:44:14.408Z,2.30
2022-10-28T18:46:42.804Z,2.67
2022-10-28T18:51:55.003Z,2.40
2022-10-28T18:54:22.600Z,3.58
2022-10-28T18:56:53.686Z,2.92
2022-10-28T19:04:55.507Z,2.40
2022-10-28T19:07:23.049Z,2.63
2022-10-28T19:09:50.659Z,3.08
2022-10-28T19:12:18.195Z,2.60
2022-10-28T19:14:45.778Z,2.50
2022-10-28T19:17:14.063Z,2.70
2022-10-28T19:19:42.684Z,2.95
2022-10-28T19:22:10.525Z,2.53
2022-10-28T19:24:38.295Z,2.67
2022-10-28T19:27:05.850Z,2.75
2022-10-28T19:29:33.451Z,2.47
2022-10-28T19:32:01.070Z,2.85
2022-10-28T19:34:28.848Z,2.90
2022-10-28T19:36:56.504Z,3.22
2022-10-28T19:39:23.990Z,3.40
2022-10-28T19:44:38.611Z,3.10
2022-10-28T19:47:06.662Z,3.38
2022-10-28T19:49:39.304Z,3.20
2022-10-28T19:52:08.471Z,2.90
2022-10-28T19:54:36.058Z,4.15
2022-10-28T20:02:38.882Z,2.78
2022-10-28T20:05:07.061Z,2.65
2022-10-28T20:07:34.813Z,4.07
2022-10-28T20:10:02.486Z,4.03
2022-10-28T20:15:15.400Z,3.90
2022-10-28T20:17:43.201Z,3.38
2022-10-28T20:20:14.225Z,3.40
2022-10-28T20:25:26.990Z,3.83
2022-10-28T20:27:54.631Z,3.42
2022-10-28T20:30:22.280Z,4.78
2022-10-28T20:32:54.746Z,4.60
2022-10-28T20:35:25.560Z,3.78
2022-10-28T20:37:54.993Z,3.95
2022-10-28T20:40:23.009Z,3.10
2022-10-28T20:45:35.384Z,3.55
2022-10-28T20:48:02.652Z,3.78
2022-10-28T20:50:29.998Z,3.65
2022-10-28T20:52:57.907Z,5.55
2022-10-28T20:55:25.898Z,3.22
2022-10-28T21:00:38.433Z,3.35
2022-10-28T21:05:50.888Z,4.18
2022-10-28T21:08:19.920Z,3.53
2022-10-28T21:10:47.662Z,3.60
2022-10-28T21:13:15.305Z,3.92
2022-10-28T21:15:54.712Z,3.25
2022-10-28T21:18:28.989Z,3.85
2022-10-28T21:20:59.235Z,4.35
2022-10-28T21:23:28.966Z,4.20
2022-10-28T21:26:02.347Z,3.47
2022-10-28T21:28:32.189Z,3.78
2022-10-28T21:36:20.904Z,5.30
2022-10-28T21:41:37.248Z,3.60
2022-10-28T21:44:05.541Z,3.67
2022-10-28T21:46:33.146Z,3.13
2022-10-28T21:49:01.174Z,3.28
2022-10-28T21:51:28.767Z,3.38
2022-10-28T21:53:56.378Z,3.65
2022-10-28T21:56:23.867Z,3.80
2022-10-28T21:58:53.899Z,3.72
2022-10-28T22:01:24.521Z,3.15
2022-10-28T22:06:40.220Z,4.03
2022-10-28T22:09:07.811Z,3.63
2022-10-28T22:11:35.619Z,3.63
2022-10-28T22:14:05.200Z,3.60
2022-10-28T22:16:35.277Z,3.88
2022-10-28T22:19:06.589Z,2.95
2022-10-28T22:24:24.744Z,3.83
2022-10-28T22:26:52.552Z,5.03
2022-10-28T22:29:20.288Z,3.50
2022-10-28T22:34:32.983Z,3.50
2022-10-28T22:37:00.535Z,4.15
2022-10-28T22:39:29.366Z,4.20
2022-10-28T22:41:56.886Z,4.35
2022-10-28T22:47:09.961Z,3.90
2022-10-28T22:49:37.621Z,3.88
2022-10-28T22:52:05.585Z,4.55
2022-10-28T22:54:33.221Z,3.88
2022-10-28T22:57:00.665Z,3.85
2022-10-28T23:02:13.351Z,4.53
2022-10-28T23:04:40.909Z,5.05
2022-10-28T23:07:08.395Z,5.55
2022-10-28T23:09:35.892Z,5.47
2022-10-28T23:20:24.260Z,4.75
2022-10-28T23:22:55.609Z,5.03
2022-10-28T23:25:23.390Z,5.15
2022-10-28T23:27:51.022Z,4.63
2022-10-28T23:30:18.581Z,3.92
2022-10-28T23:32:46.004Z,4.32
2022-10-28T23:35:13.784Z,4.45
2022-10-28T23:40:26.547Z,4.00
2022-10-28T23:42:54.286Z,5.05
2022-10-28T23:45:22.027Z,4.43
2022-10-28T23:47:49.418Z,3.97
2022-10-28T23:53:01.636Z,4.20
2022-10-28T23:55:29.237Z,4.55
2022-10-28T23:57:57.923Z,4.40
